createdAt,value
2022-12-22T00:01:54.911Z,6.05
2022-12-22T00:04:40.696Z,5.75
2022-12-22T00:07:25.921Z,5.60
2022-12-22T00:10:11.040Z,6.38
2022-12-22T00:12:57.475Z,6.65
2022-12-22T00:15:42.624Z,7.07
2022-12-22T00:18:32.741Z,6.90
2022-12-22T00:21:17.872Z,6.38
2022-12-22T00:24:03.068Z,6.72
2022-12-22T00:26:48.745Z,7.03
2022-12-22T00:29:34.487Z,7.85
2022-12-22T00:32:20.646Z,7.82
2022-12-22T00:35:06.311Z,8.05
2022-12-22T00:37:53.407Z,7.63
2022-12-22T00:40:46.675Z,7.53
2022-12-22T00:43:32.381Z,8.10
2022-12-22T00:46:18.772Z,8.80
2022-12-22T00:49:03.834Z,8.35
2022-12-22T00:51:50.075Z,8.27
2022-12-22T00:54:35.837Z,8.48
2022-12-22T00:57:21.489Z,9.65
2022-12-22T01:00:07.977Z,9.50
2022-12-22T01:02:53.808Z,8.77
2022-12-22T01:05:39.194Z,9.40
2022-12-22T01:08:24.440Z,9.60
2022-12-22T01:11:09.594Z,9.00
2022-12-22T01:13:54.868Z,8.93
2022-12-22T01:16:39.977Z,7.95
2022-12-22T01:19:25.047Z,9.00
2022-12-22T01:22:10.181Z,8.95
2022-12-22T01:24:55.240Z,9.57
2022-12-22T01:27:40.489Z,9.07
2022-12-22T01:30:26.516Z,10.88
2022-12-22T01:33:11.711Z,9.15
2022-12-22T01:35:56.762Z,9.02
2022-12-22T01:38:41.635Z,8.95
2022-12-22T01:41:29.459Z,9.48
2022-12-22T01:44:14.466Z,9.55
2022-12-22T01:47:02.555Z,9.13
2022-12-22T01:49:52.309Z,9.13
2022-12-22T01:52:39.374Z,10.23
2022-12-22T01:55:27.887Z,10.05
2022-12-22T01:58:13.175Z,10.88
2022-12-22T02:00:59.008Z,9.40
2022-12-22T02:03:44.239Z,9.95
2022-12-22T02:06:48.481Z,9.98
2022-12-22T02:09:39.683Z,10.38
2022-12-22T02:12:36.149Z,9.35
2022-12-22T02:15:43.953Z,10.20
2022-12-22T02:18:43.391Z,8.68
2022-12-22T02:21:30.685Z,9.73
2022-12-22T02:24:34.664Z,9.43
2022-12-22T02:27:20.593Z,10.07
2022-12-22T02:30:12.411Z,9.30
2022-12-22T02:33:06.929Z,9.13
2022-12-22T02:36:08.237Z,8.18
2022-12-22T02:39:15.314Z,8.35
2022-12-22T02:42:17.349Z,8.90
2022-12-22T02:45:02.400Z,8.48
2022-12-22T02:48:16.427Z,8.98
2022-12-22T02:51:05.744Z,9.90
2022-12-22T02:53:51.154Z,9.57
2022-12-22T02:56:36.113Z,9.65
2022-12-22T02:59:21.169Z,10.00
2022-12-22T03:02:06.411Z,8.85
2022-12-22T03:04:51.842Z,9.13
2022-12-22T03:07:36.839Z,8.68
2022-12-22T03:10:22.408Z,8.50
2022-12-22T03:13:07.582Z,9.60
2022-12-22T03:15:52.785Z,9.10
2022-12-22T03:18:38.056Z,8.27
2022-12-22T03:21:23.249Z,6.70
2022-12-22T03:24:08.453Z,7.97
2022-12-22T03:26:35.035Z,6.63
2022-12-22T03:29:01.618Z,6.82
2022-12-22T03:31:28.282Z,7.97
2022-12-22T03:33:55.079Z,7.97
2022-12-22T03:36:21.914Z,8.98
2022-12-22T03:38:48.479Z,8.75
2022-12-22T03:41:33.269Z,9.05
2022-12-22T03:44:18.654Z,8.10
2022-12-22T03:46:45.292Z,8.30
2022-12-22T03:49:12.017Z,8.32
2022-12-22T03:51:44.297Z,7.40
2022-12-22T03:54:12.294Z,8.13
2022-12-22T03:56:39.443Z,7.38
2022-12-22T03:59:06.654Z,7.47
2022-12-22T04:01:34.694Z,8.57
2022-12-22T04:04:01.327Z,7.97
2022-12-22T04:06:28.004Z,7.30
2022-12-22T04:08:54.577Z,8.18
2022-12-22T04:11:39.649Z,7.82
2022-12-22T04:14:06.245Z,7.93
2022-12-22T04:16:32.894Z,7.55
2022-12-22T04:18:59.664Z,7.03
2022-12-22T04:21:27.182Z,6.45
2022-12-22T04:23:53.913Z,7.25
2022-12-22T04:26:23.047Z,7.55
2022-12-22T04:28:50.256Z,6.93
2022-12-22T04:31:16.948Z,7.75
2022-12-22T04:33:43.587Z,7.47
2022-12-22T04:36:10.664Z,6.65
2022-12-22T04:38:37.840Z,7.22
2022-12-22T04:41:04.472Z,7.82
2022-12-22T04:43:31.089Z,7.20
2022-12-22T04:45:57.762Z,6.60
2022-12-22T04:48:26.053Z,6.72
2022-12-22T04:50:54.435Z,7.28
2022-12-22T04:53:21.875Z,7.68
2022-12-22T04:56:08.991Z,6.65
2022-12-22T04:58:35.625Z,7.05
2022-12-22T05:01:14.263Z,6.15
2022-12-22T05:03:41.137Z,6.80
2022-12-22T05:06:08.329Z,6.10
2022-12-22T05:08:34.989Z,6.50
2022-12-22T05:11:02.956Z,6.55
2022-12-22T05:13:33.345Z,7.85
2022-12-22T05:16:06.968Z,6.80
2022-12-22T05:18:34.952Z,7.43
2022-12-22T05:21:07.421Z,6.95
2022-12-22T05:23:33.987Z,6.15
2022-12-22T05:26:00.545Z,6.95
2022-12-22T05:28:27.231Z,7.40
2022-12-22T05:30:54.188Z,7.13
2022-12-22T05:33:21.452Z,7.15
2022-12-22T05:35:48.002Z,6.32
2022-12-22T05:38:14.551Z,6.90
2022-12-22T05:40:41.135Z,6.32
2022-12-22T05:43:07.705Z,5.13
2022-12-22T05:45:34.257Z,6.97
2022-12-22T05:48:00.897Z,6.90
2022-12-22T05:50:27.724Z,6.20
2022-12-22T05:52:54.774Z,6.03
2022-12-22T05:55:21.364Z,6.30
2022-12-22T05:57:47.921Z,7.18
2022-12-22T06:00:16.644Z,6.40
2022-12-22T06:02:44.025Z,6.43
2022-12-22T06:05:11.876Z,5.97
2022-12-22T06:07:38.499Z,6.53
2022-12-22T06:10:11.651Z,5.40
2022-12-22T06:12:38.820Z,6.15
2022-12-22T06:15:06.293Z,6.75
2022-12-22T06:17:32.867Z,7.45
2022-12-22T06:19:59.453Z,6.47
2022-12-22T06:22:26.077Z,7.05
2022-12-22T06:24:52.644Z,6.47
2022-12-22T06:27:19.227Z,6.15
2022-12-22T06:29:45.790Z,6.32
2022-12-22T06:32:12.346Z,6.93
2022-12-22T06:34:38.918Z,6.47
2022-12-22T06:37:05.455Z,6.80
2022-12-22T06:39:32.108Z,6.70
2022-12-22T06:42:17.331Z,6.10
2022-12-22T06:44:43.903Z,8.77
2022-12-22T06:47:10.501Z,7.13
2022-12-22T06:49:37.151Z,9.30
2022-12-22T06:52:08.514Z,8.38
2022-12-22T06:54:35.366Z,7.35
2022-12-22T06:57:01.961Z,7.80
2022-12-22T06:59:29.704Z,7.78
2022-12-22T07:01:56.348Z,9.23
2022-12-22T07:04:22.993Z,6.22
2022-12-22T07:06:49.648Z,8.30
2022-12-22T07:09:16.276Z,8.70
2022-12-22T07:11:42.893Z,7.53
2022-12-22T07:14:09.537Z,7.65
2022-12-22T07:16:36.221Z,6.80
2022-12-22T07:19:03.056Z,7.13
2022-12-22T07:21:29.681Z,9.07
2022-12-22T07:23:56.262Z,7.40
2022-12-22T07:26:22.875Z,6.70
2022-12-22T07:28:49.434Z,5.88
2022-12-22T07:31:17.072Z,7.30
2022-12-22T07:33:43.674Z,5.90
2022-12-22T07:36:15.672Z,6.03
2022-12-22T07:38:44.604Z,5.50
2022-12-22T07:41:31.791Z,6.93
2022-12-22T07:43:59.370Z,6.85
2022-12-22T07:46:27.997Z,5.88
2022-12-22T07:51:41.597Z,5.30
2022-12-22T07:54:09.967Z,5.65
2022-12-22T07:56:36.762Z,5.07
2022-12-22T07:59:03.550Z,5.65
2022-12-22T08:01:30.421Z,6.38
2022-12-22T08:03:58.291Z,5.10
2022-12-22T08:06:25.250Z,4.47
2022-12-22T08:08:52.159Z,4.75
2022-12-22T08:11:19.181Z,5.30
2022-12-22T08:13:46.631Z,4.75
2022-12-22T08:16:14.122Z,4.07
2022-12-22T08:18:41.313Z,4.25
2022-12-22T08:21:08.845Z,3.83
2022-12-22T08:23:35.870Z,3.33
2022-12-22T08:26:11.710Z,2.22
2022-12-22T08:28:42.319Z,3.00
2022-12-22T08:31:09.473Z,2.50
2022-12-22T08:33:36.355Z,1.90
2022-12-22T08:36:08.117Z,3.85
2022-12-22T08:38:35.170Z,8.98
2022-12-22T08:41:01.747Z,6.15
2022-12-22T08:43:30.819Z,7.07
2022-12-22T08:45:57.524Z,4.63
2022-12-22T08:48:24.215Z,5.13
2022-12-22T08:50:50.793Z,4.53
2022-12-22T08:53:37.647Z,4.70
2022-12-22T08:56:04.147Z,3.30
2022-12-22T08:58:30.696Z,6.15
2022-12-22T09:00:57.768Z,5.53
2022-12-22T09:03:24.474Z,3.92
2022-12-22T09:05:51.157Z,6.93
2022-12-22T09:08:17.709Z,6.32
2022-12-22T09:10:44.351Z,5.70
2022-12-22T09:13:10.990Z,4.95
2022-12-22T09:15:37.610Z,6.00
2022-12-22T09:18:04.370Z,6.47
2022-12-22T09:20:30.933Z,7.00
2022-12-22T09:22:57.544Z,7.80
2022-12-22T09:25:24.091Z,7.80
2022-12-22T09:27:50.713Z,8.10
2022-12-22T09:30:17.544Z,8.65
2022-12-22T09:32:44.124Z,7.20
2022-12-22T09:35:10.661Z,8.35
2022-12-22T09:37:37.208Z,8.40
2022-12-22T09:40:04.156Z,7.85
2022-12-22T09:42:33.675Z,8.50
2022-12-22T09:45:00.379Z,8.65
2022-12-22T09:47:40.292Z,7.85
2022-12-22T09:50:08.920Z,8.50
2022-12-22T09:55:13.757Z,8.10
2022-12-22T09:57:40.313Z,8.13
2022-12-22T10:00:18.852Z,7.63
2022-12-22T10:03:03.151Z,8.07
2022-12-22T10:05:43.523Z,7.13
2022-12-22T10:08:15.891Z,7.95
2022-12-22T10:10:42.557Z,7.57
2022-12-22T10:13:17.934Z,8.13
2022-12-22T10:15:44.798Z,7.38
2022-12-22T10:18:18.768Z,7.70
2022-12-22T10:20:48.211Z,8.05
2022-12-22T10:23:27.133Z,8.18
2022-12-22T10:28:55.525Z,8.70
2022-12-22T10:31:33.887Z,8.18
2022-12-22T10:34:12.958Z,8.65
2022-12-22T10:36:39.874Z,9.50
2022-12-22T10:39:09.754Z,9.52
2022-12-22T10:41:47.817Z,11.10
2022-12-22T10:44:17.480Z,9.32
2022-12-22T10:46:47.287Z,11.15
2022-12-22T10:49:22.918Z,10.63
2022-12-22T10:52:09.148Z,11.52
2022-12-22T10:54:36.709Z,11.70
2022-12-22T10:57:22.846Z,11.50
2022-12-22T11:00:00.398Z,12.73
2022-12-22T11:02:30.147Z,13.63
2022-12-22T11:05:09.004Z,13.15
2022-12-22T11:07:43.160Z,13.00
2022-12-22T11:10:12.933Z,13.07
2022-12-22T11:13:02.560Z,13.73
2022-12-22T11:15:43.430Z,13.98
2022-12-22T11:18:41.788Z,12.90
2022-12-22T11:21:39.276Z,13.52
2022-12-22T11:24:39.595Z,13.80
2022-12-22T11:27:24.834Z,14.13
2022-12-22T11:30:29.814Z,13.20
2022-12-22T11:33:03.651Z,13.20
2022-12-22T11:35:34.529Z,12.30
2022-12-22T11:38:40.188Z,12.52
2022-12-22T11:41:25.428Z,13.52
2022-12-22T11:44:01.050Z,12.20
2022-12-22T11:46:49.133Z,11.40
2022-12-22T11:49:38.031Z,10.77
2022-12-22T11:52:35.761Z,11.82
2022-12-22T11:55:11.493Z,10.90
2022-12-22T11:57:52.034Z,10.27
2022-12-22T12:00:19.761Z,10.52
2022-12-22T12:02:55.693Z,10.47
2022-12-22T12:05:59.163Z,11.20
2022-12-22T12:08:34.805Z,10.57
2022-12-22T12:11:26.541Z,9.45
2022-12-22T12:13:59.079Z,9.88
2022-12-22T12:16:28.608Z,10.02
2022-12-22T12:19:26.555Z,9.93
2022-12-22T12:21:58.369Z,9.35
2022-12-22T12:24:56.177Z,8.60
2022-12-22T12:27:50.979Z,9.52
2022-12-22T12:33:42.582Z,7.93
2022-12-22T12:36:13.987Z,6.70
2022-12-22T12:39:18.199Z,6.38
2022-12-22T12:41:57.187Z,6.38
2022-12-22T12:44:27.589Z,5.80
2022-12-22T12:46:56.925Z,5.97
2022-12-22T12:49:38.662Z,5.78
2022-12-22T12:52:07.010Z,6.07
2022-12-22T12:54:34.786Z,6.18
2022-12-22T12:57:07.379Z,5.40
2022-12-22T12:59:40.221Z,5.70
2022-12-22T13:02:29.987Z,5.20
2022-12-22T13:05:05.415Z,4.72
2022-12-22T13:08:04.149Z,5.25
2022-12-22T13:10:32.454Z,4.93
2022-12-22T13:12:59.276Z,5.38
2022-12-22T13:15:34.776Z,5.00
2022-12-22T13:18:03.846Z,5.00
2022-12-22T13:20:36.052Z,5.35
2022-12-22T13:23:05.003Z,4.90
2022-12-22T13:25:41.946Z,5.05
2022-12-22T13:28:15.863Z,4.85
2022-12-22T13:30:47.642Z,5.28
2022-12-22T13:33:16.694Z,5.38
2022-12-22T13:35:47.770Z,4.82
2022-12-22T13:38:27.038Z,4.82
2022-12-22T13:40:53.767Z,4.97
2022-12-22T13:43:20.897Z,5.03
2022-12-22T13:45:49.601Z,4.85
2022-12-22T13:48:20.080Z,4.30
2022-12-22T13:50:54.369Z,5.00
2022-12-22T13:56:36.466Z,4.93
2022-12-22T13:59:03.600Z,5.53
2022-12-22T14:01:30.315Z,5.38
2022-12-22T14:04:07.962Z,5.35
2022-12-22T14:06:38.629Z,6.70
2022-12-22T14:09:12.604Z,6.35
2022-12-22T14:11:42.796Z,6.53
2022-12-22T14:14:24.685Z,6.53
2022-12-22T14:16:52.577Z,6.88
2022-12-22T14:19:20.688Z,6.28
2022-12-22T14:22:00.909Z,6.32
2022-12-22T14:24:32.082Z,6.20
2022-12-22T14:27:01.564Z,6.97
2022-12-22T14:29:28.899Z,6.40
2022-12-22T14:31:57.680Z,6.00
2022-12-22T14:34:34.844Z,6.25
2022-12-22T14:37:02.529Z,7.18
2022-12-22T14:39:31.908Z,7.70
2022-12-22T14:42:01.516Z,6.65
2022-12-22T14:44:45.571Z,6.75
2022-12-22T14:47:17.430Z,7.63
2022-12-22T14:49:51.304Z,7.32
2022-12-22T14:52:24.093Z,8.63
2022-12-22T14:54:52.337Z,7.93
2022-12-22T14:57:32.482Z,7.68
2022-12-22T15:00:07.113Z,7.93
2022-12-22T15:02:40.609Z,7.38
2022-12-22T15:05:35.651Z,7.85
2022-12-22T15:08:08.072Z,8.20
2022-12-22T15:10:39.756Z,8.07
2022-12-22T15:13:12.370Z,7.93
2022-12-22T15:15:39.067Z,8.13
2022-12-22T15:18:05.879Z,7.72
2022-12-22T15:20:38.921Z,8.50
2022-12-22T15:23:14.389Z,7.63
2022-12-22T15:25:41.109Z,8.75
2022-12-22T15:28:07.693Z,9.05
2022-12-22T15:30:34.479Z,8.38
2022-12-22T15:33:01.129Z,7.72
2022-12-22T15:35:31.149Z,9.25
2022-12-22T15:37:58.076Z,8.05
2022-12-22T15:40:26.166Z,8.52
2022-12-22T15:42:53.126Z,8.50
2022-12-22T15:45:21.382Z,8.70
2022-12-22T15:47:53.433Z,9.30
2022-12-22T15:50:23.671Z,9.82
2022-12-22T15:52:53.017Z,9.73
2022-12-22T15:55:20.358Z,9.57
2022-12-22T15:57:50.381Z,10.93
2022-12-22T16:00:18.009Z,10.93
2022-12-22T16:02:44.845Z,9.57
2022-12-22T16:05:12.450Z,9.70
2022-12-22T16:07:40.501Z,10.52
2022-12-22T16:10:16.950Z,10.07
2022-12-22T16:12:49.952Z,10.73
2022-12-22T16:15:16.713Z,10.43
2022-12-22T16:17:43.286Z,10.70
2022-12-22T16:20:09.982Z,10.40
2022-12-22T16:22:36.994Z,10.05
2022-12-22T16:25:07.141Z,10.48
2022-12-22T16:27:35.208Z,9.82
2022-12-22T16:30:01.826Z,10.32
2022-12-22T16:32:30.297Z,10.68
2022-12-22T16:35:01.377Z,10.43
2022-12-22T16:37:27.970Z,9.50
2022-12-22T16:39:54.822Z,9.45
2022-12-22T16:45:10.621Z,10.52
2022-12-22T16:47:37.198Z,10.35
2022-12-22T16:50:04.087Z,9.93
2022-12-22T16:52:41.174Z,10.10
2022-12-22T16:55:19.434Z,10.15
2022-12-22T16:57:46.437Z,9.27
2022-12-22T17:00:21.549Z,10.73
2022-12-22T17:02:51.233Z,9.35
2022-12-22T17:05:44.376Z,9.38
2022-12-22T17:08:27.681Z,9.15
2022-12-22T17:10:55.677Z,9.63
2022-12-22T17:13:22.352Z,10.73
2022-12-22T17:15:48.973Z,10.45
2022-12-22T17:18:20.862Z,11.02
2022-12-22T17:20:49.603Z,10.90
2022-12-22T17:23:35.429Z,11.18
2022-12-22T17:26:06.131Z,12.43
2022-12-22T17:28:33.367Z,12.40
2022-12-22T17:30:59.972Z,10.27
2022-12-22T17:33:26.554Z,11.35
2022-12-22T17:35:53.272Z,9.85
2022-12-22T17:38:21.270Z,10.25
2022-12-22T17:40:49.175Z,10.88
2022-12-22T17:43:17.492Z,11.43
2022-12-22T17:45:48.240Z,12.57
2022-12-22T17:48:16.105Z,13.07
2022-12-22T17:50:44.415Z,12.82
2022-12-22T17:53:15.058Z,13.23
2022-12-22T17:56:07.263Z,12.18
2022-12-22T17:58:28.205Z,11.65
2022-12-22T18:00:54.753Z,12.93
2022-12-22T18:03:21.451Z,13.15
2022-12-22T18:05:49.281Z,13.30
2022-12-22T18:08:18.642Z,14.87
2022-12-22T18:10:45.751Z,12.57
2022-12-22T18:13:25.160Z,12.10
2022-12-22T18:15:53.172Z,11.55
2022-12-22T18:18:20.936Z,10.98
2022-12-22T18:21:06.677Z,12.32
2022-12-22T18:23:36.518Z,12.32
2022-12-22T18:28:30.344Z,12.98
2022-12-22T18:30:56.918Z,12.88
2022-12-22T18:33:23.518Z,12.63
2022-12-22T18:35:50.236Z,14.38
2022-12-22T18:38:33.838Z,13.57
2022-12-22T18:41:00.580Z,13.02
2022-12-22T18:43:27.162Z,13.43
2022-12-22T18:45:53.810Z,14.00
2022-12-22T18:48:20.411Z,14.30
2022-12-22T18:50:47.050Z,13.57
2022-12-22T18:53:24.825Z,14.68
2022-12-22T18:55:51.384Z,14.57
2022-12-22T18:58:18.099Z,14.50
2022-12-22T19:00:45.136Z,14.45
2022-12-22T19:03:28.975Z,12.90
2022-12-22T19:05:56.697Z,13.82
2022-12-22T19:08:26.100Z,14.60
2022-12-22T19:10:58.672Z,14.85
2022-12-22T19:13:28.459Z,15.73
2022-12-22T19:15:55.435Z,13.40
2022-12-22T19:18:26.519Z,13.32
2022-12-22T19:20:55.513Z,13.32
2022-12-22T19:23:23.586Z,13.25
2022-12-22T19:25:53.369Z,14.73
2022-12-22T19:28:32.278Z,16.60
2022-12-22T19:30:59.433Z,15.05
2022-12-22T19:33:29.499Z,14.93
2022-12-22T19:35:57.867Z,14.68
2022-12-22T19:38:26.372Z,13.85
2022-12-22T19:43:20.157Z,15.52
2022-12-22T19:45:49.874Z,15.98
2022-12-22T19:48:22.378Z,14.77
2022-12-22T19:50:49.861Z,15.35
2022-12-22T19:53:16.604Z,14.93
2022-12-22T19:55:45.648Z,13.77
2022-12-22T19:58:23.722Z,14.63
2022-12-22T20:00:50.721Z,13.30
2022-12-22T20:03:21.926Z,13.93
2022-12-22T20:05:49.137Z,14.35
2022-12-22T20:08:15.992Z,13.85
2022-12-22T20:10:43.291Z,14.27
2022-12-22T20:13:21.557Z,14.60
2022-12-22T20:15:48.901Z,14.30
2022-12-22T20:18:19.457Z,14.68
2022-12-22T20:20:54.061Z,13.25
2022-12-22T20:23:24.475Z,14.00
2022-12-22T20:25:54.131Z,13.05
2022-12-22T20:28:23.172Z,12.55
2022-12-22T20:30:50.284Z,12.57
2022-12-22T20:33:18.590Z,12.05
2022-12-22T20:35:46.405Z,11.95
2022-12-22T20:38:19.445Z,13.38
2022-12-22T20:40:47.900Z,12.75
2022-12-22T20:43:20.054Z,12.30
2022-12-22T20:45:49.226Z,12.18
2022-12-22T20:48:40.162Z,12.48
2022-12-22T20:51:10.608Z,13.20
2022-12-22T20:53:37.194Z,12.38
2022-12-22T20:56:04.008Z,12.00
2022-12-22T20:58:34.130Z,12.05
2022-12-22T21:01:01.957Z,13.05
2022-12-22T21:03:28.851Z,12.05
2022-12-22T21:05:55.609Z,12.43
2022-12-22T21:08:25.226Z,12.35
2022-12-22T21:10:54.166Z,12.07
2022-12-22T21:13:21.331Z,12.25
2022-12-22T21:15:50.719Z,11.02
2022-12-22T21:18:19.934Z,11.25
2022-12-22T21:20:47.769Z,11.27
2022-12-22T21:23:16.415Z,10.98
2022-12-22T21:28:24.030Z,11.75
2022-12-22T21:30:50.660Z,12.15
2022-12-22T21:33:17.295Z,12.15
2022-12-22T21:35:44.069Z,10.48
2022-12-22T21:38:16.881Z,11.55
2022-12-22T21:40:46.819Z,11.13
2022-12-22T21:43:14.548Z,10.43
2022-12-22T21:45:43.039Z,11.13
2022-12-22T21:48:15.978Z,10.77
2022-12-22T21:50:42.557Z,10.57
2022-12-22T21:53:09.188Z,9.90
2022-12-22T21:55:37.922Z,10.13
2022-12-22T21:58:05.950Z,9.98
2022-12-22T22:00:33.351Z,9.63
2022-12-22T22:03:01.945Z,9.32
2022-12-22T22:05:31.611Z,9.35
2022-12-22T22:07:58.775Z,7.88
2022-12-22T22:10:30.469Z,8.75
2022-12-22T22:12:57.136Z,7.88
2022-12-22T22:15:25.327Z,7.95
2022-12-22T22:17:51.984Z,8.70
2022-12-22T22:20:21.064Z,7.72
2022-12-22T22:22:49.078Z,8.55
2022-12-22T22:25:16.571Z,8.45
2022-12-22T22:27:47.632Z,8.23
2022-12-22T22:30:19.689Z,7.43
2022-12-22T22:32:46.873Z,8.52
2022-12-22T22:35:13.702Z,8.65
2022-12-22T22:37:40.928Z,8.30
2022-12-22T22:40:09.874Z,8.95
2022-12-22T22:42:37.440Z,9.90
2022-12-22T22:45:05.584Z,9.43
2022-12-22T22:47:32.666Z,8.73
2022-12-22T22:49:59.481Z,8.98
2022-12-22T22:52:26.320Z,9.50
2022-12-22T22:54:52.931Z,9.00
2022-12-22T22:57:19.576Z,9.80
2022-12-22T22:59:46.189Z,9.85
2022-12-22T23:02:14.849Z,9.82
2022-12-22T23:04:42.052Z,9.63
2022-12-22T23:07:09.075Z,10.15
2022-12-22T23:09:35.677Z,10.32
2022-12-22T23:12:02.298Z,8.98
2022-12-22T23:14:28.885Z,9.93
2022-12-22T23:16:55.561Z,9.27
2022-12-22T23:19:22.321Z,9.82
2022-12-22T23:21:48.863Z,9.77
2022-12-22T23:24:16.556Z,10.50
2022-12-22T23:26:43.145Z,11.70
2022-12-22T23:29:09.690Z,11.52
2022-12-22T23:31:36.566Z,11.70
2022-12-22T23:34:03.747Z,11.02
2022-12-22T23:36:30.421Z,10.75
2022-12-22T23:38:57.063Z,14.02
2022-12-22T23:41:24.004Z,11.98
2022-12-22T23:43:50.685Z,13.32
2022-12-22T23:46:17.763Z,13.65
2022-12-22T23:48:44.442Z,14.60
2022-12-22T23:51:11.829Z,13.93
2022-12-22T23:53:38.999Z,14.90
2022-12-22T23:56:05.932Z,15.80
2022-12-22T23:58:32.504Z,15.45
